Time;durP1;ratioP1;P1;durP2;ratioP2;P2;SDS_P1;SDS_P2;PMS_P1;PMS_P2;Temp;Humidity;BMP_temperature;BMP_pressure;BME280_temperature;BME280_humidity;BME280_pressure;Samples;Min_cycle;Max_cycle;Signal;HPM_P1;HPM_P2
2024/02/01 00:04:28;;;;;;;2.80;1.63;;;;;;;17.29;51.48;102178.38;10412188;28;20279;-57
2024/02/01 00:09:28;;;;;;;2.27;1.47;;;;;;;17.30;50.51;102182.66;10424881;28;20283;-56
2024/02/01 00:14:29;;;;;;;2.90;1.40;;;;;;;17.30;50.47;102182.66;10410859;28;20311;-56
2024/02/01 00:19:29;;;;;;;2.17;1.60;;;;;;;17.32;50.33;102185.91;10411547;28;20286;-56
2024/02/01 00:24:29;;;;;;;2.67;1.27;;;;;;;17.32;51.03;102165.25;10411242;28;20279;-56
2024/02/01 00:29:30;;;;;;;3.33;1.33;;;;;;;17.35;51.26;102156.69;10411559;28;20022;-56
2024/02/01 00:34:32;;;;;;;3.00;1.23;;;;;;;17.35;50.55;102159.38;10437149;28;20284;-56
2024/02/01 00:39:33;;;;;;;2.45;1.25;;;;;;;17.36;50.90;102161.00;10411117;28;20283;-57
2024/02/01 00:44:33;;;;;;;2.03;1.27;;;;;;;17.39;50.43;102160.50;10410572;28;20029;-55
2024/02/01 00:49:34;;;;;;;2.63;1.37;;;;;;;17.36;50.78;102155.63;10410626;28;20291;-57
2024/02/01 00:54:36;;;;;;;3.40;1.60;;;;;;;17.34;50.20;102160.44;10409998;28;20762;-57
2024/02/01 00:59:36;;;;;;;2.97;1.45;;;;;;;17.35;51.74;102155.91;10410035;28;20089;-57
2024/02/01 01:04:36;;;;;;;3.47;1.50;;;;;;;17.32;51.00;102157.22;10409945;28;20159;-56
2024/02/01 01:09:37;;;;;;;2.93;1.50;;;;;;;17.34;51.43;102148.91;10422676;28;20375;-56
2024/02/01 01:14:37;;;;;;;2.63;1.23;;;;;;;17.34;51.04;102152.41;10409207;28;20369;-56
2024/02/01 01:19:37;;;;;;;1.43;1.10;;;;;;;17.36;50.88;102147.59;10409847;28;20284;-56
2024/02/01 01:24:38;;;;;;;3.53;1.33;;;;;;;17.40;50.71;102142.53;10409247;28;20758;-55
2024/02/01 01:29:38;;;;;;;2.20;1.30;;;;;;;17.40;50.02;102134.47;10409450;28;20294;-56
2024/02/01 01:34:38;;;;;;;3.20;1.37;;;;;;;17.38;51.55;102144.66;10435693;28;20071;-56
2024/02/01 01:39:39;;;;;;;2.27;1.27;;;;;;;17.37;51.58;102148.41;10409418;28;20815;-57
2024/02/01 01:44:39;;;;;;;3.63;1.23;;;;;;;17.37;51.49;102141.16;10408880;28;20271;-56
2024/02/01 01:49:39;;;;;;;2.63;1.40;;;;;;;17.36;50.71;102157.50;10407848;28;20030;-56
2024/02/01 01:54:40;;;;;;;2.28;1.20;;;;;;;17.35;52.00;102158.56;10408574;28;20274;-57
2024/02/01 01:59:40;;;;;;;1.92;1.08;;;;;;;17.34;50.83;102163.13;10408838;28;20075;-56
2024/02/01 02:04:41;;;;;;;3.13;1.30;;;;;;;17.34;51.41;102163.13;10408549;28;20044;-57
2024/02/01 02:09:42;;;;;;;2.05;1.10;;;;;;;17.34;50.95;102168.50;10422831;28;20113;-56
2024/02/01 02:14:55;;;;;;;2.83;1.00;;;;;;;17.34;51.30;102173.84;10416458;28;20058;-56
2024/02/01 02:19:56;;;;;;;3.28;1.10;;;;;;;17.33;51.31;102171.44;10425883;28;20114;-57
2024/02/01 02:24:56;;;;;;;1.90;0.90;;;;;;;17.33;51.38;102187.50;10429029;28;20437;-57
2024/02/01 02:29:56;;;;;;;3.30;1.57;;;;;;;17.33;50.87;102185.63;10416152;28;20379;-56
2024/02/01 02:34:56;;;;;;;2.20;0.93;;;;;;;17.33;51.72;102179.47;10415685;28;20421;-56
2024/02/01 02:39:57;;;;;;;1.83;1.07;;;;;;;17.35;50.37;102174.66;10414344;28;20307;-56
2024/02/01 02:44:57;;;;;;;2.87;1.33;;;;;;;17.34;51.53;102178.41;10415365;28;20847;-56
2024/02/01 02:49:57;;;;;;;2.40;1.23;;;;;;;17.35;51.61;102185.38;10415411;28;20328;-57
2024/02/01 02:54:58;;;;;;;1.17;0.80;;;;;;;17.34;50.42;102195.31;10415273;28;20322;-56
2024/02/01 02:59:59;;;;;;;2.53;1.35;;;;;;;17.34;50.96;102199.84;10415254;28;20053;-56
2024/02/01 03:05:00;;;;;;;3.03;1.55;;;;;;;17.32;51.90;102205.47;10414622;28;20028;-56
2024/02/01 03:10:04;;;;;;;1.73;0.90;;;;;;;17.34;51.09;102219.44;10427383;28;20022;-56
2024/02/01 03:15:05;;;;;;;1.05;0.73;;;;;;;17.33;51.34;102209.75;10413675;28;20049;-56
2024/02/01 03:20:28;;;;;;;1.80;0.85;;;;;;;17.35;52.14;102214.88;10413094;28;20388;-57
2024/02/01 03:25:28;;;;;;;2.25;1.00;;;;;;;17.34;51.78;102230.16;10413785;28;20022;-56
2024/02/01 03:30:29;;;;;;;2.33;0.95;;;;;;;17.34;51.85;102242.75;10414455;28;20488;-57
2024/02/01 03:35:32;;;;;;;1.80;1.00;;;;;;;17.35;51.15;102258.59;10413541;28;20528;-55
2024/02/01 03:40:38;;;;;;;3.28;0.93;;;;;;;17.35;51.36;102261.25;10412375;28;20503;-57
2024/02/01 03:45:48;;;;;;;3.10;1.25;;;;;;;17.35;52.35;102277.34;10413114;28;20342;-55
2024/02/01 03:50:51;;;;;;;2.22;1.10;;;;;;;17.34;51.05;102283.78;10412893;28;20025;-56
2024/02/01 03:55:51;;;;;;;1.88;0.90;;;;;;;17.34;52.30;102305.22;10412455;28;20096;-56
2024/02/01 04:00:52;;;;;;;1.40;1.10;;;;;;;17.36;51.03;102315.69;10412670;28;20377;-56
2024/02/01 04:05:53;;;;;;;2.57;1.17;;;;;;;17.34;51.32;102336.59;10411888;28;20288;-57
2024/02/01 04:10:54;;;;;;;2.35;1.13;;;;;;;17.35;51.54;102344.38;10423551;28;20290;-57
2024/02/01 04:15:54;;;;;;;3.45;1.10;;;;;;;17.36;52.16;102355.91;10411595;28;20447;-57
2024/02/01 04:20:54;;;;;;;4.23;1.10;;;;;;;17.34;50.61;102371.44;10411953;28;20035;-57
2024/02/01 04:25:56;;;;;;;3.97;1.30;;;;;;;17.34;52.13;102393.69;10411114;28;20617;-55
2024/02/01 04:30:57;;;;;;;2.63;1.35;;;;;;;17.33;51.18;102404.69;10411239;28;20276;-56
2024/02/01 04:35:57;;;;;;;2.28;1.05;;;;;;;17.34;50.27;102406.28;10410799;28;20025;-56
2024/02/01 04:40:57;;;;;;;3.03;1.60;;;;;;;17.30;50.59;102413.22;10411067;28;20397;-57
2024/02/01 04:45:58;;;;;;;3.03;0.90;;;;;;;17.33;51.54;102426.94;10410231;28;20292;-56
2024/02/01 04:50:58;;;;;;;2.97;0.80;;;;;;;17.33;51.32;102444.88;10410669;28;21012;-57
2024/02/01 04:56:00;;;;;;;1.67;1.10;;;;;;;17.33;51.58;102447.56;10415650;28;20033;-56
2024/02/01 05:01:07;;;;;;;1.88;1.38;;;;;;;17.32;51.63;102456.69;10420743;28;20871;-55
2024/02/01 05:06:08;;;;;;;4.35;1.10;;;;;;;17.31;50.99;102468.47;10420296;28;20033;-58
2024/02/01 05:11:11;;;;;;;2.35;0.90;;;;;;;17.30;51.79;102483.72;10423027;28;20033;-56
2024/02/01 05:16:13;;;;;;;2.60;0.75;;;;;;;17.31;50.89;102489.91;10420421;28;20091;-56
2024/02/01 05:21:13;;;;;;;3.03;1.20;;;;;;;17.30;50.14;102491.78;10424606;28;20437;-57
2024/02/01 05:26:13;;;;;;;4.27;1.30;;;;;;;17.30;50.31;102485.59;10426653;28;20090;-56
2024/02/01 05:31:15;;;;;;;7.43;1.52;;;;;;;17.30;51.20;102485.59;10425261;28;20813;-56
2024/02/01 05:36:15;;;;;;;3.03;1.17;;;;;;;17.28;50.44;102485.81;10438570;28;20495;-57
2024/02/01 05:41:17;;;;;;;2.70;1.40;;;;;;;17.30;50.70;102485.59;10448284;28;20114;-56
2024/02/01 05:46:17;;;;;;;1.47;0.90;;;;;;;17.34;49.97;102494.78;10408059;28;20130;-56
2024/02/01 05:51:17;;;;;;;5.00;1.57;;;;;;;17.35;49.21;102496.41;10408964;28;20303;-57
2024/02/01 05:56:18;;;;;;;2.40;1.27;;;;;;;17.39;49.93;102522.47;10429411;28;20766;-56
2024/02/01 06:01:18;;;;;;;3.87;1.30;;;;;;;17.40;49.57;102536.69;10450109;28;20279;-56
2024/02/01 06:06:18;;;;;;;4.90;1.60;;;;;;;17.39;49.86;102532.38;10449297;28;20306;-57
2024/02/01 06:11:18;;;;;;;3.23;1.57;;;;;;;17.54;49.59;102546.06;10426002;28;20300;-57
2024/02/01 06:16:19;;;;;;;5.80;1.40;;;;;;;17.51;50.56;102554.56;10407870;28;20299;-57
2024/02/01 06:21:20;;;;;;;6.75;1.38;;;;;;;17.49;52.27;102560.19;10409056;28;20294;-46
2024/02/01 06:26:21;;;;;;;5.25;1.50;;;;;;;17.48;52.34;102576.53;10407716;28;20033;-58
2024/02/01 06:31:25;;;;;;;8.20;2.40;;;;;;;17.54;52.75;102599.72;10408417;28;20374;-57
2024/02/01 06:36:34;;;;;;;6.30;1.60;;;;;;;17.47;52.12;102601.72;10406616;28;20680;-57
2024/02/01 06:52:02;;;;;;;6.78;1.70;;;;;;;17.43;51.88;102605.94;10442424;28;20021;-57
2024/02/01 06:57:03;;;;;;;25.50;4.82;;;;;;;17.31;52.84;102600.66;10408847;28;20026;-56
2024/02/01 07:02:11;;;;;;;18.15;2.63;;;;;;;17.33;52.53;102617.31;10421931;28;20043;-56
2024/02/01 07:07:18;;;;;;;8.15;2.13;;;;;;;17.29;52.10;102624.22;10447240;28;20033;-56
2024/02/01 07:12:29;;;;;;;8.13;2.85;;;;;;;17.33;51.38;102635.25;10421296;28;20037;-57
2024/02/01 07:17:31;;;;;;;9.35;2.55;;;;;;;17.38;51.72;102646.88;10412585;28;20025;-55
2024/02/01 07:22:35;;;;;;;9.30;1.92;;;;;;;17.33;51.60;102654.03;10411997;28;20037;-57
2024/02/01 07:59:38;;;;;;;9.45;2.00;;;;;;;17.30;50.53;102721.53;10397310;28;20116;-57
2024/02/01 08:07:44;;;;;;;3.70;1.58;;;;;;;17.28;51.03;102720.94;10436852;28;20029;-56
2024/02/01 08:09:58;;;;;;;5.03;1.77;;;;;;;17.25;50.95;102743.69;10423494;28;20084;-56
2024/02/01 08:14:59;;;;;;;5.38;1.42;;;;;;;17.24;50.62;102745.56;10415987;28;20087;-56
2024/02/01 08:20:11;;;;;;;4.97;1.35;;;;;;;17.22;50.49;102750.34;10413730;28;20022;-56
2024/02/01 08:25:12;;;;;;;7.68;1.63;;;;;;;17.18;51.64;102748.38;10420648;28;20028;-56
2024/02/01 08:30:12;;;;;;;6.05;1.65;;;;;;;17.19;50.62;102744.66;10426056;28;20028;-57
2024/02/01 08:35:13;;;;;;;6.90;1.80;;;;;;;17.19;50.40;102758.88;10439811;28;20033;-57
2024/02/01 08:40:16;;;;;;;2.95;1.17;;;;;;;17.17;52.02;102776.25;10430046;28;20037;-56
2024/02/01 08:45:17;;;;;;;4.80;2.45;;;;;;;17.14;51.53;102787.41;10427069;28;20080;-56
2024/02/01 08:50:18;;;;;;;4.88;1.23;;;;;;;17.12;50.43;102793.00;10415135;28;20079;-44
2024/02/01 08:55:18;;;;;;;4.88;1.50;;;;;;;17.13;52.31;102799.19;10419425;28;20593;-47
2024/02/01 09:00:21;;;;;;;3.65;1.40;;;;;;;17.12;50.88;102803.72;10411202;28;20034;-44
2024/02/01 09:05:22;;;;;;;5.28;1.83;;;;;;;17.13;51.07;102808.03;10415431;28;20080;-44
2024/02/01 09:10:22;;;;;;;3.35;1.50;;;;;;;17.08;51.89;102807.94;10421928;28;20102;-47
2024/02/01 09:15:23;;;;;;;4.95;1.42;;;;;;;17.03;50.79;102815.03;10420108;28;20068;-47
2024/02/01 09:20:25;;;;;;;5.43;1.38;;;;;;;17.00;52.15;102808.28;10408136;28;20025;-47
2024/02/01 09:25:26;;;;;;;4.20;2.03;;;;;;;16.96;52.04;102825.88;10409061;28;20099;-47
2024/02/01 09:30:28;;;;;;;3.55;1.27;;;;;;;16.91;52.58;102831.13;10425500;28;20028;-52
2024/02/01 09:35:28;;;;;;;4.03;1.70;;;;;;;16.92;52.80;102835.41;10422145;28;20607;-46
2024/02/01 09:40:30;;;;;;;3.85;1.15;;;;;;;16.90;51.89;102834.84;10408491;28;20037;-47
2024/02/01 09:45:32;;;;;;;4.20;1.30;;;;;;;16.90;51.67;102835.66;10407763;28;20025;-46
2024/02/01 09:50:32;;;;;;;3.90;1.10;;;;;;;16.90;52.96;102841.03;10415225;28;20029;-47
2024/02/01 09:55:33;;;;;;;4.77;1.30;;;;;;;16.88;52.51;102864.56;10408526;28;20065;-43
2024/02/01 10:00:33;;;;;;;6.50;2.33;;;;;;;16.85;52.37;102870.38;10408592;28;20299;-44
2024/02/01 10:05:34;;;;;;;4.18;1.60;;;;;;;16.85;52.44;102877.59;10414436;28;20310;-49
2024/02/01 10:10:38;;;;;;;4.28;1.50;;;;;;;16.86;52.62;102887.28;10420616;28;20033;-46
2024/02/01 10:15:43;;;;;;;2.60;1.42;;;;;;;16.87;52.92;102924.56;10408085;28;20379;-44
2024/02/01 10:20:55;;;;;;;3.45;1.60;;;;;;;16.87;52.54;102904.97;10408094;28;20087;-45
2024/02/01 10:25:56;;;;;;;5.18;1.67;;;;;;;16.87;53.00;102896.94;10407831;28;20156;-48
2024/02/01 10:30:57;;;;;;;4.82;1.38;;;;;;;16.88;51.69;102907.44;10429009;28;20025;-48
2024/02/01 10:35:59;;;;;;;6.82;1.50;;;;;;;16.88;52.37;102896.72;10444456;28;20040;-47
2024/02/01 10:41:11;;;;;;;7.00;1.75;;;;;;;16.93;53.34;102898.72;10414748;28;20033;-49
2024/02/01 10:46:29;;;;;;;2.70;1.20;;;;;;;16.95;52.82;102899.28;10413465;28;20030;-46
2024/02/01 10:51:30;;;;;;;4.30;1.10;;;;;;;16.97;52.99;102899.06;10419018;28;20057;-46
2024/02/01 10:56:30;;;;;;;4.95;1.35;;;;;;;16.94;51.85;102905.69;10413589;28;20100;-50
2024/02/01 11:01:31;;;;;;;4.57;1.95;;;;;;;16.93;53.32;102888.81;10439835;28;20021;-45
2024/02/01 11:06:31;;;;;;;7.22;1.42;;;;;;;16.93;53.12;102894.16;10430026;28;20083;-46
2024/02/01 11:11:33;;;;;;;5.57;1.83;;;;;;;16.98;51.83;102900.69;10423563;28;20029;-45
2024/02/01 11:16:50;;;;;;;5.55;1.45;;;;;;;16.93;52.49;102891.50;10411627;28;20064;-45
2024/02/01 11:21:55;;;;;;;5.15;1.73;;;;;;;16.97;52.76;102893.69;10437568;28;20021;-46
2024/02/01 11:26:58;;;;;;;6.63;2.33;;;;;;;17.03;52.97;102890.88;10428296;28;20104;-47
2024/02/01 11:32:03;;;;;;;4.10;1.42;;;;;;;17.05;52.59;102901.38;10422014;28;20409;-45
2024/02/01 11:37:06;;;;;;;6.00;1.58;;;;;;;17.04;52.77;102907.78;10424899;28;20400;-44
2024/02/01 11:42:06;;;;;;;3.70;1.80;;;;;;;17.02;53.26;102912.56;10411094;28;20429;-50
2024/02/01 11:47:07;;;;;;;5.00;1.43;;;;;;;17.02;53.40;102904.53;10415840;28;20021;-45
2024/02/01 11:52:16;;;;;;;3.95;1.63;;;;;;;17.03;51.93;102903.47;10412199;28;20099;-47
2024/02/01 11:57:18;;;;;;;6.53;1.90;;;;;;;17.02;53.18;102894.63;10411902;28;20053;-50
2024/02/01 12:02:19;;;;;;;5.38;1.58;;;;;;;17.09;52.14;102894.53;10410683;28;20035;-48
2024/02/01 12:07:20;;;;;;;5.50;2.30;;;;;;;17.07;52.88;102892.09;10421117;28;20021;-48
2024/02/01 12:12:23;;;;;;;3.05;1.35;;;;;;;17.08;51.86;102899.06;10420069;28;20018;-46
2024/02/01 12:17:24;;;;;;;4.03;1.75;;;;;;;17.09;53.00;102902.56;10411048;28;20029;-47
2024/02/01 12:22:28;;;;;;;6.97;1.90;;;;;;;17.07;51.69;102910.03;10410271;28;20029;-47
2024/02/01 12:27:29;;;;;;;4.00;1.52;;;;;;;17.05;52.53;102920.13;10410687;28;20036;-49
2024/02/01 12:32:29;;;;;;;10.77;2.77;;;;;;;17.01;52.95;102914.44;10412216;28;20070;-45
2024/02/01 12:37:29;;;;;;;5.77;2.10;;;;;;;16.97;52.12;102918.63;10435236;28;20329;-47
2024/02/01 12:42:32;;;;;;;4.83;1.70;;;;;;;16.88;52.92;102915.47;10418555;28;20416;-46
2024/02/01 12:47:40;;;;;;;4.60;1.50;;;;;;;16.87;52.45;102910.34;10415107;28;20376;-47
2024/02/01 12:52:40;;;;;;;2.92;1.20;;;;;;;16.87;52.86;102907.66;10408453;28;20370;-56
2024/02/01 12:57:42;;;;;;;6.03;1.73;;;;;;;16.84;52.81;102914.31;10409112;28;20029;-57
2024/02/01 13:02:44;;;;;;;3.83;1.40;;;;;;;16.84;52.04;102908.94;10408005;28;20283;-56
2024/02/01 13:07:44;;;;;;;5.13;1.73;;;;;;;16.86;52.61;102906.03;10418691;28;20025;-56
2024/02/01 13:12:58;;;;;;;4.27;1.63;;;;;;;16.87;52.78;102902.31;10429946;28;20049;-56
2024/02/01 13:17:58;;;;;;;5.30;1.88;;;;;;;16.84;51.90;102908.13;10449264;28;20272;-56
2024/02/01 13:23:08;;;;;;;4.53;1.35;;;;;;;16.81;53.18;102909.41;10427472;28;20427;-56
2024/02/01 13:28:10;;;;;;;4.40;1.17;;;;;;;16.79;52.10;102911.47;10420908;28;20053;-55
2024/02/01 13:33:11;;;;;;;4.72;1.80;;;;;;;16.75;52.39;102907.63;10420718;28;20536;-51
2024/02/01 13:38:11;;;;;;;6.32;1.65;;;;;;;16.75;53.26;102898.78;10419371;28;20029;-48
2024/02/01 13:43:12;;;;;;;7.35;2.40;;;;;;;16.73;52.32;102898.19;10406224;28;20021;-49
2024/02/01 13:48:12;;;;;;;5.70;1.65;;;;;;;16.71;53.08;102901.13;10414456;28;20037;-51
2024/02/01 13:53:17;;;;;;;5.50;1.85;;;;;;;16.69;51.76;102887.09;10406955;28;20476;-50
2024/02/01 13:58:17;;;;;;;5.47;2.28;;;;;;;16.68;52.83;102901.56;10408485;28;20060;-53
2024/02/01 14:03:17;;;;;;;6.23;2.17;;;;;;;16.65;52.45;102892.09;10418117;28;20036;-51
2024/02/01 14:08:18;;;;;;;5.07;1.90;;;;;;;16.65;51.68;102901.97;10430448;28;20861;-50
2024/02/01 14:13:18;;;;;;;4.57;2.60;;;;;;;16.63;52.51;102898.72;10417034;28;20045;-51
2024/02/01 14:18:19;;;;;;;5.15;1.58;;;;;;;16.62;52.46;102897.91;10415880;28;20339;-50
2024/02/01 14:23:19;;;;;;;7.57;1.90;;;;;;;16.61;51.69;102890.09;10437447;28;20047;-47
2024/02/01 14:28:19;;;;;;;3.38;1.08;;;;;;;16.60;51.50;102900.00;10415766;28;20295;-49
2024/02/01 14:33:21;;;;;;;7.23;1.77;;;;;;;16.60;53.15;102905.34;10417479;28;20037;-52
2024/02/01 14:38:21;;;;;;;4.03;1.55;;;;;;;16.60;52.22;102899.19;10453667;28;20268;-50
2024/02/01 14:43:21;;;;;;;5.75;1.42;;;;;;;16.60;51.94;102916.06;10455064;28;20033;-51
2024/02/01 14:48:22;;;;;;;4.67;1.37;;;;;;;16.59;51.89;102925.16;10433007;28;20402;-51
2024/02/01 14:53:22;;;;;;;3.13;1.13;;;;;;;16.59;53.08;102927.84;10433932;28;20373;-48
2024/02/01 14:58:22;;;;;;;7.73;2.60;;;;;;;16.61;51.35;102931.09;10455198;28;20043;-48
2024/02/01 15:03:23;;;;;;;5.23;2.07;;;;;;;16.64;51.37;102925.28;10428167;28;21144;-47
2024/02/01 15:08:25;;;;;;;6.85;1.67;;;;;;;16.66;51.74;102935.75;10428530;28;20371;-48
2024/02/01 15:13:25;;;;;;;4.65;1.33;;;;;;;16.66;51.90;102944.59;10437406;28;20056;-48
2024/02/01 15:18:25;;;;;;;23.60;2.70;;;;;;;16.69;51.29;102954.06;10418103;28;20025;-49
2024/02/01 15:23:26;;;;;;;17.38;2.92;;;;;;;16.71;52.26;102959.22;10433275;28;20412;-49
2024/02/01 15:28:26;;;;;;;15.75;2.70;;;;;;;16.74;52.22;102961.44;10432301;28;20036;-46
2024/02/01 15:33:27;;;;;;;14.27;2.40;;;;;;;16.82;53.57;102964.63;10428917;28;20029;-46
2024/02/01 15:38:29;;;;;;;9.18;2.55;;;;;;;16.89;52.32;102969.88;10427978;28;20346;-48
2024/02/01 15:43:29;;;;;;;7.28;2.30;;;;;;;16.91;53.33;102978.50;10438453;28;20025;-49
2024/02/01 15:48:31;;;;;;;9.73;2.28;;;;;;;16.99;52.62;102977.34;10426637;28;20037;-48
2024/02/01 15:53:32;;;;;;;5.22;2.15;;;;;;;17.00;52.57;102979.00;10430008;28;20346;-48
2024/02/01 15:58:33;;;;;;;7.57;1.80;;;;;;;17.02;54.04;102974.22;10437787;28;20524;-45
2024/02/01 16:03:34;;;;;;;7.37;2.17;;;;;;;17.00;53.64;102981.66;10432684;28;20025;-47
2024/02/01 16:08:45;;;;;;;7.22;2.03;;;;;;;17.00;54.61;102979.00;10441115;28;20690;-49
2024/02/01 16:13:49;;;;;;;7.93;2.17;;;;;;;16.98;54.16;102973.88;10427333;28;20080;-50
2024/02/01 16:18:49;;;;;;;6.53;2.55;;;;;;;16.98;54.78;102973.06;10423902;28;20352;-49
2024/02/01 16:23:49;;;;;;;9.47;2.33;;;;;;;16.93;54.81;102990.66;10435730;28;20035;-47
2024/02/01 16:28:50;;;;;;;9.68;2.17;;;;;;;16.80;54.90;102990.00;10416039;28;20299;-49
2024/02/01 16:34:13;;;;;;;12.27;2.80;;;;;;;16.77;53.93;102998.50;10445802;28;20120;-48
2024/02/01 16:39:19;;;;;;;13.35;2.13;;;;;;;16.74;54.40;103007.81;10410184;28;20038;-47
2024/02/01 16:44:43;;;;;;;8.35;2.33;;;;;;;16.74;54.73;103010.47;10411248;28;20203;-46
2024/02/01 16:49:44;;;;;;;13.93;4.05;;;;;;;16.69;54.15;103002.28;10417184;28;20404;-48
2024/02/01 16:54:44;;;;;;;11.52;2.03;;;;;;;16.85;55.34;102999.00;10440017;28;20032;-57
2024/02/01 16:59:45;;;;;;;11.05;2.88;;;;;;;16.82;53.36;102996.78;10413955;28;20048;-57
2024/02/01 17:04:45;;;;;;;10.77;2.22;;;;;;;16.82;54.12;102995.97;10413849;28;20025;-56
2024/02/01 17:09:45;;;;;;;12.32;2.83;;;;;;;16.93;54.40;102998.69;10427113;28;20091;-58
2024/02/01 17:14:46;;;;;;;14.55;2.83;;;;;;;16.97;53.28;103017.78;10424272;28;20056;-57
2024/02/01 17:19:49;;;;;;;17.40;3.80;;;;;;;17.09;54.17;103004.44;10419363;28;20025;-56
2024/02/01 17:24:49;;;;;;;18.88;4.60;;;;;;;17.36;55.91;103002.94;10424190;28;20088;-58
2024/02/01 17:29:58;;;;;;;12.27;3.15;;;;;;;17.40;54.36;103014.03;10440677;28;20457;-56
2024/02/01 17:34:58;;;;;;;24.98;5.60;;;;;;;17.42;54.97;103014.63;10451469;28;20429;-54
2024/02/01 17:39:59;;;;;;;15.63;4.05;;;;;;;17.29;55.80;103017.53;10431676;28;20044;-55
2024/02/01 17:45:14;;;;;;;13.00;4.40;;;;;;;17.22;54.52;103014.94;10433552;28;20536;-55
2024/02/01 17:50:38;;;;;;;16.75;4.78;;;;;;;17.19;55.17;103008.19;10407432;28;20030;-56
2024/02/01 17:55:46;;;;;;;13.55;4.07;;;;;;;17.23;55.89;103014.72;10404811;28;20033;-55
2024/02/01 18:00:46;;;;;;;25.90;4.65;;;;;;;17.21;54.84;103016.81;10403556;28;20404;-57
2024/02/01 18:05:47;;;;;;;19.20;4.75;;;;;;;17.22;54.46;103028.34;10412712;28;20020;-59
2024/02/01 18:10:49;;;;;;;18.50;4.00;;;;;;;17.08;55.33;103029.59;10412563;28;20034;-58
2024/02/01 18:16:01;;;;;;;14.48;4.53;;;;;;;17.01;54.12;103032.34;10444075;28;20049;-58
2024/02/01 18:21:03;;;;;;;14.10;3.63;;;;;;;16.95;53.41;103044.00;10441957;28;20121;-58
2024/02/01 18:26:07;;;;;;;13.05;3.45;;;;;;;16.91;54.55;103046.31;10434117;28;20040;-58
2024/02/01 18:31:18;;;;;;;16.55;4.85;;;;;;;16.86;54.10;103043.50;10423638;28;20064;-59
2024/02/01 18:36:32;;;;;;;10.40;3.90;;;;;;;16.87;54.28;103034.41;10419588;28;20017;-58
2024/02/01 18:41:33;;;;;;;9.23;3.42;;;;;;;16.85;53.99;103033.84;10415195;28;20507;-58
2024/02/01 18:46:50;;;;;;;6.28;2.70;;;;;;;16.89;52.87;103021.59;10429381;28;20032;-59
2024/02/01 18:51:51;;;;;;;10.38;3.40;;;;;;;16.90;53.90;103033.94;10433980;28;20377;-59
2024/02/01 18:56:55;;;;;;;8.45;3.20;;;;;;;16.93;52.88;103038.06;10438001;28;20087;-58
2024/02/01 19:01:56;;;;;;;10.05;3.95;;;;;;;17.00;53.11;103027.22;10428203;28;20583;-59
2024/02/01 19:06:58;;;;;;;9.18;2.67;;;;;;;17.00;53.00;103027.22;10434771;28;20031;-58
2024/02/01 19:12:09;;;;;;;12.52;3.72;;;;;;;17.01;52.13;103036.91;10438315;28;20040;-59
2024/02/01 19:17:33;;;;;;;10.55;2.70;;;;;;;17.05;53.03;103038.06;10430856;28;20055;-59
2024/02/01 19:22:40;;;;;;;9.32;2.58;;;;;;;17.02;51.86;103041.22;10413010;28;20041;-59
2024/02/01 19:27:41;;;;;;;8.88;3.03;;;;;;;17.02;52.69;103044.72;10412633;28;20033;-59
2024/02/01 19:32:41;;;;;;;6.85;2.40;;;;;;;17.03;51.62;103038.31;10427903;28;20495;-58
2024/02/01 19:37:59;;;;;;;12.00;4.28;;;;;;;17.14;52.05;103042.88;10455277;28;20357;-59
2024/02/01 19:43:00;;;;;;;5.80;2.40;;;;;;;17.14;52.29;103045.56;10439021;28;20036;-59
2024/02/01 19:48:03;;;;;;;8.20;2.97;;;;;;;17.10;51.28;103046.25;10435339;28;20029;-58
2024/02/01 19:53:04;;;;;;;9.35;3.13;;;;;;;17.13;52.87;103043.13;10447173;28;20424;-58
2024/02/01 19:58:04;;;;;;;12.52;3.30;;;;;;;17.15;51.75;103035.66;10449251;28;20113;-59
2024/02/01 20:03:04;;;;;;;7.93;2.53;;;;;;;17.19;52.19;103026.13;10449605;28;20017;-58
2024/02/01 20:08:05;;;;;;;9.23;2.75;;;;;;;17.17;51.79;103031.72;10422090;28;20029;-56
2024/02/01 20:13:05;;;;;;;9.32;2.30;;;;;;;17.55;50.44;103038.56;10449605;28;20095;-57
2024/02/01 20:18:15;;;;;;;5.75;2.58;;;;;;;17.26;51.52;103040.22;10447974;28;20025;-57
2024/02/01 20:23:17;;;;;;;6.65;2.97;;;;;;;17.20;51.18;103044.66;10435255;28;20116;-57
2024/02/01 20:28:46;;;;;;;7.85;2.88;;;;;;;17.17;52.55;103044.31;10431697;28;20025;-57
2024/02/01 20:33:51;;;;;;;5.97;3.20;;;;;;;17.14;51.87;103040.22;10437141;28;20044;-56
2024/02/01 20:38:56;;;;;;;9.80;3.08;;;;;;;17.13;52.03;103037.75;10421581;28;20030;-57
2024/02/01 20:43:57;;;;;;;6.00;2.70;;;;;;;17.11;50.93;103046.03;10439394;28;20499;-56
2024/02/01 20:48:58;;;;;;;5.97;2.78;;;;;;;17.11;52.49;103058.63;10426957;28;20083;-57
2024/02/01 20:53:58;;;;;;;6.20;2.53;;;;;;;17.11;51.19;103061.28;10409978;28;20477;-57
2024/02/01 20:59:00;;;;;;;5.72;2.53;;;;;;;17.08;52.50;103040.31;10409758;28;20280;-57
2024/02/01 21:04:23;;;;;;;4.95;2.38;;;;;;;17.08;52.14;103032.28;10415135;28;20056;-57
2024/02/01 21:09:41;;;;;;;5.38;2.50;;;;;;;17.10;52.29;103016.78;10422225;28;20053;-57
2024/02/01 21:14:49;;;;;;;6.95;2.42;;;;;;;17.09;51.39;103015.97;10409217;28;20053;-57
2024/02/01 21:19:50;;;;;;;5.15;2.38;;;;;;;17.09;51.27;103002.56;10409011;28;20030;-58
2024/02/01 21:24:56;;;;;;;4.25;1.92;;;;;;;17.09;51.35;102983.78;10407854;28;20033;-57
2024/02/01 21:29:57;;;;;;;5.65;2.08;;;;;;;17.09;52.14;102982.97;10410615;28;20465;-57
2024/02/01 21:35:00;;;;;;;4.18;2.20;;;;;;;17.12;51.00;102988.69;10421011;28;20030;-56
2024/02/01 21:40:02;;;;;;;7.03;2.55;;;;;;;17.14;51.83;102975.06;10407073;28;20120;-57
2024/02/01 21:45:06;;;;;;;6.35;2.80;;;;;;;17.11;50.70;102976.34;10409557;28;20037;-57
2024/02/01 21:50:06;;;;;;;6.38;2.60;;;;;;;17.14;50.84;102973.19;10414372;28;20024;-56
2024/02/01 21:55:07;;;;;;;5.95;2.38;;;;;;;17.12;51.38;102982.50;10408609;28;20031;-56
2024/02/01 22:00:09;;;;;;;6.75;2.58;;;;;;;17.15;51.67;102974.00;10406660;28;20017;-56
2024/02/01 22:05:10;;;;;;;11.80;3.05;;;;;;;17.13;51.82;102981.47;10415252;28;20037;-57
2024/02/01 22:10:11;;;;;;;6.65;2.60;;;;;;;17.14;50.58;102978.53;10418879;28;20515;-57
2024/02/01 22:15:12;;;;;;;5.90;2.67;;;;;;;17.14;51.86;102967.00;10407856;28;20049;-56
2024/02/01 22:20:12;;;;;;;4.95;2.47;;;;;;;17.13;51.46;102955.47;10406531;28;20021;-57
2024/02/01 22:25:12;;;;;;;5.70;2.78;;;;;;;17.14;51.33;102956.28;10408442;28;20040;-60
2024/02/01 22:30:13;;;;;;;5.55;2.38;;;;;;;17.14;51.28;102953.59;10417915;28;20104;-61
2024/02/01 22:35:13;;;;;;;6.85;2.17;;;;;;;17.13;51.59;102955.47;10428731;28;20036;-60
2024/02/01 22:40:14;;;;;;;5.10;2.22;;;;;;;17.15;51.29;102944.50;10415127;28;20018;-60
2024/02/01 22:45:15;;;;;;;5.93;2.35;;;;;;;17.13;50.48;102966.19;10416701;28;20049;-59
2024/02/01 22:50:16;;;;;;;4.20;2.22;;;;;;;17.13;51.28;102957.34;10420422;28;20017;-60
2024/02/01 22:55:17;;;;;;;4.32;1.83;;;;;;;17.13;51.06;102951.97;10414667;28;20022;-60
2024/02/01 23:00:23;;;;;;;5.72;2.13;;;;;;;17.13;51.28;102957.34;10414572;28;20021;-60
2024/02/01 23:05:23;;;;;;;8.85;3.15;;;;;;;17.12;50.01;102929.72;10420990;28;20029;-60
2024/02/01 23:10:23;;;;;;;5.28;2.70;;;;;;;17.14;51.16;102927.63;10425772;28;20091;-60
2024/02/01 23:15:25;;;;;;;6.70;2.63;;;;;;;17.12;51.30;102916.31;10412976;28;20049;-61
2024/02/01 23:20:25;;;;;;;3.97;2.35;;;;;;;17.15;49.88;102904.31;10413296;28;20025;-59
2024/02/01 23:25:25;;;;;;;6.67;2.30;;;;;;;17.14;49.76;102894.63;10413932;28;20029;-60
2024/02/01 23:30:26;;;;;;;5.65;2.70;;;;;;;17.14;49.91;102911.53;10414534;28;20291;-60
2024/02/01 23:35:26;;;;;;;4.85;1.92;;;;;;;17.15;50.22;102901.63;10428498;28;20103;-60
2024/02/01 23:40:27;;;;;;;5.95;2.08;;;;;;;17.16;50.36;102890.66;10411296;28;20017;-61
2024/02/01 23:45:27;;;;;;;4.68;2.13;;;;;;;17.17;50.16;102881.59;10417166;28;20102;-59
2024/02/01 23:50:27;;;;;;;8.30;2.17;;;;;;;17.17;51.16;102876.25;10416120;28;20017;-60
2024/02/01 23:55:28;;;;;;;5.10;2.33;;;;;;;17.17;50.40;102870.06;10412761;28;20593;-59
